sensor_id;sensor_type;location;lat;lon;timestamp;P1;durP1;ratioP1;P2;durP2;ratioP2
6483;SDS011;3275;52.376;9.694;2023-08-17T07:07:39;4.80;;;4.30;;
6483;SDS011;3275;52.376;9.694;2023-08-17T07:10:10;8.00;;;4.30;;
6483;SDS011;3275;52.376;9.694;2023-08-17T07:12:37;6.10;;;4.80;;
6483;SDS011;3275;52.376;9.694;2023-08-17T07:15:04;4.87;;;4.40;;
6483;SDS011;3275;52.376;9.694;2023-08-17T07:17:32;4.20;;;3.80;;
6483;SDS011;3275;52.376;9.694;2023-08-17T07:20:01;4.93;;;4.43;;
6483;SDS011;3275;52.376;9.694;2023-08-17T07:22:28;5.50;;;4.27;;
6483;SDS011;3275;52.376;9.694;2023-08-17T07:24:56;6.60;;;4.20;;
6483;SDS011;3275;52.376;9.694;2023-08-17T07:27:23;5.63;;;4.80;;
6483;SDS011;3275;52.376;9.694;2023-08-17T07:29:50;6.50;;;4.80;;
6483;SDS011;3275;52.376;9.694;2023-08-17T07:32:16;6.07;;;4.83;;
6483;SDS011;3275;52.376;9.694;2023-08-17T07:34:43;11.00;;;5.13;;
6483;SDS011;3275;52.376;9.694;2023-08-17T07:37:10;6.07;;;4.80;;
6483;SDS011;3275;52.376;9.694;2023-08-17T07:39:37;6.13;;;4.93;;
6483;SDS011;3275;52.376;9.694;2023-08-17T07:42:05;7.30;;;5.27;;
6483;SDS011;3275;52.376;9.694;2023-08-17T07:44:31;5.80;;;5.17;;
6483;SDS011;3275;52.376;9.694;2023-08-17T07:46:59;7.33;;;5.10;;
6483;SDS011;3275;52.376;9.694;2023-08-17T07:49:27;6.37;;;5.77;;
6483;SDS011;3275;52.376;9.694;2023-08-17T07:51:54;5.50;;;5.00;;
6483;SDS011;3275;52.376;9.694;2023-08-17T07:54:21;6.33;;;5.73;;
6483;SDS011;3275;52.376;9.694;2023-08-17T07:56:47;8.30;;;5.20;;
6483;SDS011;3275;52.376;9.694;2023-08-17T07:59:15;8.00;;;5.60;;
6483;SDS011;3275;52.376;9.694;2023-08-17T08:01:42;6.50;;;5.90;;
6483;SDS011;3275;52.376;9.694;2023-08-17T08:04:09;7.23;;;6.43;;
6483;SDS011;3275;52.376;9.694;2023-08-17T08:06:35;6.37;;;5.77;;
6483;SDS011;3275;52.376;9.694;2023-08-17T08:09:02;7.40;;;6.13;;
6483;SDS011;3275;52.376;9.694;2023-08-17T08:11:29;7.60;;;6.77;;
6483;SDS011;3275;52.376;9.694;2023-08-17T08:13:56;7.50;;;6.80;;
6483;SDS011;3275;52.376;9.694;2023-08-17T08:16:24;7.23;;;6.53;;
6483;SDS011;3275;52.376;9.694;2023-08-17T08:18:51;8.07;;;7.13;;
6483;SDS011;3275;52.376;9.694;2023-08-17T08:21:17;9.27;;;6.73;;
6483;SDS011;3275;52.376;9.694;2023-08-17T08:23:44;9.77;;;6.43;;
6483;SDS011;3275;52.376;9.694;2023-08-17T08:26:11;7.03;;;6.33;;
6483;SDS011;3275;52.376;9.694;2023-08-17T08:28:37;7.33;;;6.00;;
6483;SDS011;3275;52.376;9.694;2023-08-17T08:31:04;7.13;;;6.43;;
6483;SDS011;3275;52.376;9.694;2023-08-17T08:33:32;6.13;;;4.97;;
6483;SDS011;3275;52.376;9.694;2023-08-17T08:35:58;8.13;;;6.00;;
6483;SDS011;3275;52.376;9.694;2023-08-17T08:38:25;6.50;;;5.90;;
6483;SDS011;3275;52.376;9.694;2023-08-17T08:40:52;8.00;;;5.83;;
6483;SDS011;3275;52.376;9.694;2023-08-17T08:43:19;5.83;;;5.00;;
6483;SDS011;3275;52.376;9.694;2023-08-17T08:45:46;6.93;;;5.87;;
6483;SDS011;3275;52.376;9.694;2023-08-17T08:48:14;5.30;;;4.80;;
6483;SDS011;3275;52.376;9.694;2023-08-17T08:50:45;7.77;;;6.00;;
6483;SDS011;3275;52.376;9.694;2023-08-17T08:53:13;6.80;;;5.30;;
6483;SDS011;3275;52.376;9.694;2023-08-17T08:55:41;6.40;;;5.80;;
6483;SDS011;3275;52.376;9.694;2023-08-17T08:58:15;6.20;;;5.60;;
6483;SDS011;3275;52.376;9.694;2023-08-17T09:00:45;6.33;;;5.73;;
6483;SDS011;3275;52.376;9.694;2023-08-17T09:03:12;8.90;;;5.97;;
6483;SDS011;3275;52.376;9.694;2023-08-17T09:05:42;7.60;;;5.50;;
6483;SDS011;3275;52.376;9.694;2023-08-17T09:08:10;8.47;;;6.33;;
6483;SDS011;3275;52.376;9.694;2023-08-17T09:10:39;6.60;;;6.00;;
6483;SDS011;3275;52.376;9.694;2023-08-17T09:13:07;6.63;;;6.03;;
6483;SDS011;3275;52.376;9.694;2023-08-17T09:15:34;6.57;;;4.70;;
6483;SDS011;3275;52.376;9.694;2023-08-17T09:18:01;6.47;;;5.00;;
6483;SDS011;3275;52.376;9.694;2023-08-17T09:20:34;4.43;;;4.03;;
6483;SDS011;3275;52.376;9.694;2023-08-17T09:23:04;3.73;;;3.43;;
6483;SDS011;3275;52.376;9.694;2023-08-17T09:25:35;3.20;;;2.77;;
6483;SDS011;3275;52.376;9.694;2023-08-17T09:28:06;4.53;;;3.60;;
6483;SDS011;3275;52.376;9.694;2023-08-17T09:30:34;3.60;;;3.30;;
6483;SDS011;3275;52.376;9.694;2023-08-17T09:33:16;3.47;;;3.00;;
6483;SDS011;3275;52.376;9.694;2023-08-17T09:35:43;2.63;;;2.43;;
6483;SDS011;3275;52.376;9.694;2023-08-17T09:38:13;2.67;;;2.47;;
6483;SDS011;3275;52.376;9.694;2023-08-17T09:40:40;3.60;;;3.00;;
6483;SDS011;3275;52.376;9.694;2023-08-17T09:43:07;3.00;;;2.77;;
6483;SDS011;3275;52.376;9.694;2023-08-17T09:45:35;2.60;;;2.40;;
6483;SDS011;3275;52.376;9.694;2023-08-17T09:48:03;2.70;;;2.50;;
6483;SDS011;3275;52.376;9.694;2023-08-17T09:50:30;2.93;;;2.73;;
6483;SDS011;3275;52.376;9.694;2023-08-17T09:52:57;3.57;;;2.90;;
6483;SDS011;3275;52.376;9.694;2023-08-17T09:55:25;2.40;;;2.20;;
6483;SDS011;3275;52.376;9.694;2023-08-17T09:57:52;4.90;;;2.87;;
6483;SDS011;3275;52.376;9.694;2023-08-17T10:00:19;2.70;;;2.43;;
6483;SDS011;3275;52.376;9.694;2023-08-17T10:02:46;2.60;;;2.40;;
6483;SDS011;3275;52.376;9.694;2023-08-17T10:05:17;4.07;;;2.60;;
6483;SDS011;3275;52.376;9.694;2023-08-17T10:07:46;3.60;;;2.80;;
6483;SDS011;3275;52.376;9.694;2023-08-17T10:10:19;4.50;;;2.70;;
6483;SDS011;3275;52.376;9.694;2023-08-17T10:12:53;3.20;;;2.90;;
6483;SDS011;3275;52.376;9.694;2023-08-17T10:15:29;3.27;;;3.00;;
6483;SDS011;3275;52.376;9.694;2023-08-17T10:17:58;4.17;;;2.87;;
6483;SDS011;3275;52.376;9.694;2023-08-17T10:20:29;3.30;;;3.00;;
6483;SDS011;3275;52.376;9.694;2023-08-17T10:22:59;3.67;;;3.37;;
6483;SDS011;3275;52.376;9.694;2023-08-17T10:25:34;3.40;;;3.10;;
6483;SDS011;3275;52.376;9.694;2023-08-17T10:28:03;3.73;;;3.30;;
6483;SDS011;3275;52.376;9.694;2023-08-17T10:30:30;3.13;;;2.90;;
6483;SDS011;3275;52.376;9.694;2023-08-17T10:32:58;3.77;;;3.33;;
6483;SDS011;3275;52.376;9.694;2023-08-17T10:35:25;4.23;;;3.37;;
6483;SDS011;3275;52.376;9.694;2023-08-17T10:37:53;4.43;;;3.37;;
6483;SDS011;3275;52.376;9.694;2023-08-17T10:40:25;3.80;;;3.50;;
6483;SDS011;3275;52.376;9.694;2023-08-17T10:42:53;4.27;;;3.33;;
6483;SDS011;3275;52.376;9.694;2023-08-17T10:45:29;4.90;;;3.27;;
6483;SDS011;3275;52.376;9.694;2023-08-17T10:47:59;4.30;;;3.67;;
6483;SDS011;3275;52.376;9.694;2023-08-17T10:50:59;4.33;;;3.37;;
6483;SDS011;3275;52.376;9.694;2023-08-17T10:53:27;5.13;;;3.37;;
6483;SDS011;3275;52.376;9.694;2023-08-17T10:56:00;4.60;;;3.10;;
6483;SDS011;3275;52.376;9.694;2023-08-17T10:58:30;5.10;;;3.23;;
6483;SDS011;3275;52.376;9.694;2023-08-17T11:01:00;7.23;;;3.40;;
6483;SDS011;3275;52.376;9.694;2023-08-17T11:03:27;5.83;;;3.10;;
6483;SDS011;3275;52.376;9.694;2023-08-17T11:05:54;4.57;;;3.20;;
6483;SDS011;3275;52.376;9.694;2023-08-17T11:08:22;5.10;;;3.67;;
6483;SDS011;3275;52.376;9.694;2023-08-17T11:10:56;3.50;;;3.20;;
6483;SDS011;3275;52.376;9.694;2023-08-17T11:13:26;5.50;;;3.30;;
6483;SDS011;3275;52.376;9.694;2023-08-17T11:15:53;8.70;;;3.30;;
6483;SDS011;3275;52.376;9.694;2023-08-17T11:18:21;6.53;;;3.37;;
6483;SDS011;3275;52.376;9.694;2023-08-17T11:20:48;3.40;;;3.10;;
6483;SDS011;3275;52.376;9.694;2023-08-17T11:23:16;6.00;;;2.90;;
6483;SDS011;3275;52.376;9.694;2023-08-17T11:25:44;5.53;;;3.63;;
6483;SDS011;3275;52.376;9.694;2023-08-17T11:28:11;3.80;;;3.37;;
6483;SDS011;3275;52.376;9.694;2023-08-17T11:30:39;5.07;;;3.27;;
6483;SDS011;3275;52.376;9.694;2023-08-17T11:33:07;4.93;;;3.37;;
6483;SDS011;3275;52.376;9.694;2023-08-17T11:35:36;6.20;;;3.90;;
6483;SDS011;3275;52.376;9.694;2023-08-17T11:38:04;4.10;;;3.70;;
6483;SDS011;3275;52.376;9.694;2023-08-17T11:40:33;4.30;;;3.53;;
6483;SDS011;3275;52.376;9.694;2023-08-17T11:42:59;5.13;;;3.33;;
6483;SDS011;3275;52.376;9.694;2023-08-17T11:45:26;4.10;;;3.70;;
6483;SDS011;3275;52.376;9.694;2023-08-17T11:47:53;6.90;;;3.97;;
6483;SDS011;3275;52.376;9.694;2023-08-17T11:50:20;4.10;;;3.60;;
6483;SDS011;3275;52.376;9.694;2023-08-17T11:52:48;5.57;;;3.80;;
6483;SDS011;3275;52.376;9.694;2023-08-17T11:55:16;5.13;;;3.57;;
6483;SDS011;3275;52.376;9.694;2023-08-17T11:57:44;7.37;;;3.90;;
6483;SDS011;3275;52.376;9.694;2023-08-17T12:00:16;5.10;;;3.57;;
6483;SDS011;3275;52.376;9.694;2023-08-17T12:02:46;5.73;;;3.47;;
6483;SDS011;3275;52.376;9.694;2023-08-17T12:05:13;3.83;;;3.37;;
6483;SDS011;3275;52.376;9.694;2023-08-17T12:07:44;6.23;;;3.17;;
6483;SDS011;3275;52.376;9.694;2023-08-17T12:10:13;7.20;;;3.67;;
6483;SDS011;3275;52.376;9.694;2023-08-17T12:12:39;4.10;;;3.57;;
6483;SDS011;3275;52.376;9.694;2023-08-17T12:15:06;4.83;;;3.03;;
6483;SDS011;3275;52.376;9.694;2023-08-17T12:17:35;6.37;;;3.87;;
6483;SDS011;3275;52.376;9.694;2023-08-17T12:20:07;7.03;;;3.23;;
6483;SDS011;3275;52.376;9.694;2023-08-17T12:22:34;4.67;;;3.23;;
6483;SDS011;3275;52.376;9.694;2023-08-17T12:25:01;4.67;;;3.20;;
6483;SDS011;3275;52.376;9.694;2023-08-17T12:27:31;6.40;;;3.27;;
6483;SDS011;3275;52.376;9.694;2023-08-17T12:29:58;3.43;;;2.97;;
6483;SDS011;3275;52.376;9.694;2023-08-17T12:32:24;5.47;;;4.00;;
6483;SDS011;3275;52.376;9.694;2023-08-17T12:34:51;4.90;;;3.60;;
6483;SDS011;3275;52.376;9.694;2023-08-17T12:37:18;5.20;;;3.33;;
6483;SDS011;3275;52.376;9.694;2023-08-17T12:39:45;5.67;;;4.13;;
6483;SDS011;3275;52.376;9.694;2023-08-17T12:42:13;5.70;;;4.10;;
6483;SDS011;3275;52.376;9.694;2023-08-17T12:44:41;5.10;;;3.40;;
6483;SDS011;3275;52.376;9.694;2023-08-17T12:47:07;5.90;;;3.67;;
6483;SDS011;3275;52.376;9.694;2023-08-17T12:49:35;14.00;;;4.27;;
6483;SDS011;3275;52.376;9.694;2023-08-17T12:52:01;8.43;;;4.17;;
6483;SDS011;3275;52.376;9.694;2023-08-17T12:54:28;5.53;;;4.10;;
6483;SDS011;3275;52.376;9.694;2023-08-17T12:56:55;8.43;;;3.83;;
6483;SDS011;3275;52.376;9.694;2023-08-17T12:59:21;4.90;;;3.93;;
6483;SDS011;3275;52.376;9.694;2023-08-17T13:01:50;4.77;;;3.90;;
6483;SDS011;3275;52.376;9.694;2023-08-17T13:04:16;4.73;;;3.60;;
6483;SDS011;3275;52.376;9.694;2023-08-17T13:06:43;9.10;;;4.20;;
6483;SDS011;3275;52.376;9.694;2023-08-17T13:09:10;6.50;;;4.57;;
6483;SDS011;3275;52.376;9.694;2023-08-17T13:11:36;6.87;;;3.80;;
6483;SDS011;3275;52.376;9.694;2023-08-17T13:14:03;6.70;;;4.00;;
6483;SDS011;3275;52.376;9.694;2023-08-17T13:16:30;5.30;;;3.60;;
6483;SDS011;3275;52.376;9.694;2023-08-17T13:18:58;4.33;;;3.73;;
6483;SDS011;3275;52.376;9.694;2023-08-17T13:21:25;7.33;;;3.50;;
6483;SDS011;3275;52.376;9.694;2023-08-17T13:23:51;4.53;;;3.30;;
6483;SDS011;3275;52.376;9.694;2023-08-17T13:26:18;4.17;;;3.30;;
6483;SDS011;3275;52.376;9.694;2023-08-17T13:28:45;6.33;;;3.50;;
6483;SDS011;3275;52.376;9.694;2023-08-17T13:31:11;5.20;;;3.60;;
6483;SDS011;3275;52.376;9.694;2023-08-17T13:33:38;4.00;;;2.87;;
6483;SDS011;3275;52.376;9.694;2023-08-17T13:36:06;10.33;;;3.70;;
6483;SDS011;3275;52.376;9.694;2023-08-17T13:38:33;8.53;;;3.40;;
6483;SDS011;3275;52.376;9.694;2023-08-17T13:40:59;4.90;;;3.40;;
6483;SDS011;3275;52.376;9.694;2023-08-17T13:43:26;4.87;;;2.97;;
6483;SDS011;3275;52.376;9.694;2023-08-17T13:45:53;7.20;;;3.80;;
6483;SDS011;3275;52.376;9.694;2023-08-17T13:48:19;6.43;;;3.50;;
6483;SDS011;3275;52.376;9.694;2023-08-17T13:50:46;9.13;;;3.30;;
6483;SDS011;3275;52.376;9.694;2023-08-17T13:53:14;4.03;;;3.17;;
6483;SDS011;3275;52.376;9.694;2023-08-17T13:55:41;4.80;;;2.97;;
6483;SDS011;3275;52.376;9.694;2023-08-17T13:58:08;3.00;;;2.70;;
6483;SDS011;3275;52.376;9.694;2023-08-17T14:00:36;4.80;;;3.70;;
6483;SDS011;3275;52.376;9.694;2023-08-17T14:03:03;3.60;;;2.90;;
6483;SDS011;3275;52.376;9.694;2023-08-17T14:05:31;5.50;;;3.40;;
6483;SDS011;3275;52.376;9.694;2023-08-17T14:07:58;5.27;;;3.20;;
6483;SDS011;3275;52.376;9.694;2023-08-17T14:10:30;4.87;;;3.43;;
6483;SDS011;3275;52.376;9.694;2023-08-17T14:12:58;5.50;;;2.88;;
6483;SDS011;3275;52.376;9.694;2023-08-17T14:15:24;4.73;;;2.80;;
6483;SDS011;3275;52.376;9.694;2023-08-17T14:17:51;3.90;;;2.80;;
6483;SDS011;3275;52.376;9.694;2023-08-17T14:20:18;6.20;;;2.80;;
6483;SDS011;3275;52.376;9.694;2023-08-17T14:22:45;2.87;;;2.30;;
6483;SDS011;3275;52.376;9.694;2023-08-17T14:25:11;4.43;;;2.90;;
6483;SDS011;3275;52.376;9.694;2023-08-17T14:27:39;3.03;;;1.97;;
6483;SDS011;3275;52.376;9.694;2023-08-17T14:30:06;2.37;;;2.17;;
6483;SDS011;3275;52.376;9.694;2023-08-17T14:32:33;5.33;;;3.17;;
6483;SDS011;3275;52.376;9.694;2023-08-17T14:35:00;3.77;;;2.77;;
6483;SDS011;3275;52.376;9.694;2023-08-17T14:37:27;4.90;;;2.50;;
6483;SDS011;3275;52.376;9.694;2023-08-17T14:39:53;7.60;;;3.40;;
6483;SDS011;3275;52.376;9.694;2023-08-17T14:42:20;5.77;;;3.17;;
6483;SDS011;3275;52.376;9.694;2023-08-17T14:44:49;4.30;;;2.70;;
6483;SDS011;3275;52.376;9.694;2023-08-17T14:47:16;5.20;;;3.30;;
6483;SDS011;3275;52.376;9.694;2023-08-17T14:49:43;4.13;;;2.63;;
6483;SDS011;3275;52.376;9.694;2023-08-17T14:52:11;7.30;;;3.70;;
6483;SDS011;3275;52.376;9.694;2023-08-17T14:54:38;5.43;;;3.60;;
6483;SDS011;3275;52.376;9.694;2023-08-17T14:57:05;5.17;;;3.23;;
6483;SDS011;3275;52.376;9.694;2023-08-17T14:59:31;6.80;;;3.13;;
6483;SDS011;3275;52.376;9.694;2023-08-17T15:01:59;5.83;;;3.83;;
6483;SDS011;3275;52.376;9.694;2023-08-17T15:04:26;6.93;;;3.40;;
6483;SDS011;3275;52.376;9.694;2023-08-17T15:06:53;4.93;;;3.60;;
6483;SDS011;3275;52.376;9.694;2023-08-17T15:09:19;6.53;;;3.97;;
6483;SDS011;3275;52.376;9.694;2023-08-17T15:11:46;8.93;;;4.30;;
6483;SDS011;3275;52.376;9.694;2023-08-17T15:14:13;7.50;;;4.40;;
6483;SDS011;3275;52.376;9.694;2023-08-17T15:16:40;8.10;;;4.60;;
6483;SDS011;3275;52.376;9.694;2023-08-17T15:19:08;6.73;;;4.40;;
6483;SDS011;3275;52.376;9.694;2023-08-17T15:21:34;8.43;;;4.40;;
6483;SDS011;3275;52.376;9.694;2023-08-17T15:24:01;11.70;;;4.63;;
6483;SDS011;3275;52.376;9.694;2023-08-17T15:26:28;10.10;;;4.73;;
6483;SDS011;3275;52.376;9.694;2023-08-17T15:28:54;9.30;;;5.13;;
6483;SDS011;3275;52.376;9.694;2023-08-17T15:31:21;8.00;;;4.70;;
6483;SDS011;3275;52.376;9.694;2023-08-17T15:33:48;15.93;;;5.37;;
6483;SDS011;3275;52.376;9.694;2023-08-17T15:36:16;7.93;;;3.87;;
6483;SDS011;3275;52.376;9.694;2023-08-17T15:38:46;5.63;;;4.00;;
6483;SDS011;3275;52.376;9.694;2023-08-17T15:41:13;5.90;;;4.47;;
6483;SDS011;3275;52.376;9.694;2023-08-17T15:43:39;9.90;;;5.07;;
6483;SDS011;3275;52.376;9.694;2023-08-17T15:46:06;9.40;;;4.90;;
6483;SDS011;3275;52.376;9.694;2023-08-17T15:48:33;8.20;;;4.70;;
6483;SDS011;3275;52.376;9.694;2023-08-17T15:50:59;8.60;;;5.33;;
6483;SDS011;3275;52.376;9.694;2023-08-17T15:53:27;7.23;;;4.90;;
6483;SDS011;3275;52.376;9.694;2023-08-17T15:55:54;11.13;;;4.67;;
6483;SDS011;3275;52.376;9.694;2023-08-17T15:58:21;8.67;;;4.70;;
6483;SDS011;3275;52.376;9.694;2023-08-17T16:00:47;6.50;;;4.33;;
6483;SDS011;3275;52.376;9.694;2023-08-17T16:03:14;8.77;;;4.73;;
6483;SDS011;3275;52.376;9.694;2023-08-17T16:05:41;10.40;;;4.67;;
6483;SDS011;3275;52.376;9.694;2023-08-17T16:08:07;7.40;;;4.30;;
6483;SDS011;3275;52.376;9.694;2023-08-17T16:10:35;7.20;;;4.70;;
6483;SDS011;3275;52.376;9.694;2023-08-17T16:13:02;5.60;;;4.23;;
6483;SDS011;3275;52.376;9.694;2023-08-17T16:15:29;11.27;;;4.30;;
6483;SDS011;3275;52.376;9.694;2023-08-17T16:17:56;5.10;;;4.47;;
6483;SDS011;3275;52.376;9.694;2023-08-17T16:20:23;12.00;;;4.30;;
6483;SDS011;3275;52.376;9.694;2023-08-17T16:22:50;6.50;;;3.83;;
6483;SDS011;3275;52.376;9.694;2023-08-17T16:25:16;4.50;;;3.20;;
6483;SDS011;3275;52.376;9.694;2023-08-17T16:27:44;4.80;;;3.90;;
6483;SDS011;3275;52.376;9.694;2023-08-17T16:30:11;5.20;;;2.97;;
6483;SDS011;3275;52.376;9.694;2023-08-17T16:32:38;6.67;;;4.00;;
6483;SDS011;3275;52.376;9.694;2023-08-17T16:35:05;5.60;;;3.87;;
6483;SDS011;3275;52.376;9.694;2023-08-17T16:37:32;9.20;;;4.13;;
6483;SDS011;3275;52.376;9.694;2023-08-17T16:39:59;7.27;;;3.83;;
6483;SDS011;3275;52.376;9.694;2023-08-17T16:42:27;6.87;;;4.00;;
